45CO weather

Ag-Air Inc Heliport
Mead, Colorado, United States

Public forecast

Using degrees Fahrenheit for public forecast. Weather courtesy of forecast.io.

METAR (pilot weather report)

Closest report is Vance Brand Airport, 8.9 nm (16.6 km) WSW. Retrieved 2019/08/21 04:35 UTC (15 minutes ago):

KLMO 210435Z AUTO 03003KT 7SM CLR 22/14 A3018 RMK AO2 T02180140

TAF (pilot weather forecast)

Forecast is more than 12 hours old.

Closest forecast is Rocky Mountain Metropolitan Airport, 19.0 nm (35.1 km) SSW. Retrieved 2019/08/20 00:22 UTC (1 day ago):

TAF KBJC 202320Z 2100/2124 05016G32KT P6SM SCT080 BKN150 FM210100 05010G18KT P6SM SCT080 BKN150 TEMPO 2101/2104 VRB20G35KT -TSRA BKN080CB FM210400 22010KT P6SM VCSH SCT080 BKN120 FM210700 36010KT P6SM SCT050 BKN100 FM211100 02007KT P6SM SCT030 BKN100 TEMPO 2111/2115 3SM BR BKN030 FM211500 05010KT P6SM BKN050 FM211800 09012G20KT P6SM BKN050 TEMPO 2122/2124 VRB20G35KT -TSRA BKN060CB